Time;durP1;ratioP1;P1;durP2;ratioP2;P2;SDS_P1;SDS_P2;PMS_P1;PMS_P2;Temp;Humidity;BMP_temperature;BMP_pressure;BME280_temperature;BME280_humidity;BME280_pressure;Samples;Min_cycle;Max_cycle;Signal;HPM_P1;HPM_P2
2023/05/03 00:00:07;;;;;;;2.70;1.40;;;8.00;99.90;;;;;;5095446;28;20114;-82
2023/05/03 00:02:34;;;;;;;3.72;1.35;;;7.90;99.90;;;;;;5095407;28;20044;-83
2023/05/03 00:05:00;;;;;;;3.75;1.52;;;7.90;99.90;;;;;;5095258;28;20055;-84
2023/05/03 00:07:26;;;;;;;4.07;1.40;;;7.90;99.90;;;;;;5095375;28;20044;-85
2023/05/03 00:09:51;;;;;;;7.30;1.58;;;7.90;99.90;;;;;;5093874;28;20090;-84
2023/05/03 00:12:17;;;;;;;4.97;1.70;;;7.90;99.90;;;;;;5095274;28;20472;-85
2023/05/03 00:14:44;;;;;;;6.68;1.92;;;7.90;99.90;;;;;;5093727;28;20040;-85
2023/05/03 00:17:10;;;;;;;5.00;1.63;;;7.80;99.90;;;;;;5093715;28;20131;-85
2023/05/03 00:19:36;;;;;;;5.15;1.60;;;7.80;99.90;;;;;;5095133;28;20613;-84
2023/05/03 00:22:02;;;;;;;5.95;1.75;;;7.80;99.90;;;;;;5094462;28;20046;-84
2023/05/03 00:24:28;;;;;;;5.03;1.58;;;7.90;99.90;;;;;;5094732;28;20048;-84
2023/05/03 00:26:54;;;;;;;4.82;1.75;;;7.90;99.90;;;;;;5093641;28;20506;-84
2023/05/03 00:29:21;;;;;;;4.47;2.38;;;8.00;99.90;;;;;;5094900;28;20062;-83
2023/05/03 00:31:47;;;;;;;4.53;1.88;;;8.00;99.90;;;;;;5093690;28;20039;-83
2023/05/03 00:34:13;;;;;;;3.63;1.67;;;8.00;99.90;;;;;;5093722;28;20553;-83
2023/05/03 00:36:39;;;;;;;2.90;1.40;;;8.10;99.90;;;;;;5094583;28;20052;-84
2023/05/03 00:39:04;;;;;;;2.72;1.30;;;8.20;99.90;;;;;;5094785;28;20065;-84
2023/05/03 00:41:30;;;;;;;5.35;2.00;;;8.10;99.90;;;;;;5093673;28;20466;-82
2023/05/03 00:43:56;;;;;;;2.85;1.45;;;8.20;99.90;;;;;;5094631;28;20044;-84
2023/05/03 00:46:21;;;;;;;7.32;1.35;;;8.20;99.90;;;;;;5094416;28;20391;-84
2023/05/03 00:48:48;;;;;;;4.43;1.55;;;8.20;99.90;;;;;;5094544;28;20071;-84
2023/05/03 00:51:14;;;;;;;3.65;1.52;;;8.30;99.90;;;;;;5094526;28;20107;-84
2023/05/03 00:53:43;;;;;;;3.92;1.13;;;8.30;99.90;;;;;;5094388;28;20044;-84
2023/05/03 00:56:10;;;;;;;5.55;1.35;;;8.30;99.90;;;;;;5093053;28;20449;-84
2023/05/03 00:58:38;;;;;;;4.85;1.40;;;8.30;99.90;;;;;;5094329;28;20048;-84
2023/05/03 01:01:06;;;;;;;4.30;1.50;;;8.30;99.90;;;;;;5094567;28;20082;-84
2023/05/03 01:03:35;;;;;;;2.78;1.50;;;8.30;99.90;;;;;;5094289;28;20044;-84
2023/05/03 01:06:18;;;;;;;5.30;1.27;;;8.30;99.90;;;;;;5092885;28;20400;-84
2023/05/03 01:08:46;;;;;;;;;;;8.30;99.90;;;;;;5094666;28;20039;-84
2023/05/03 01:11:23;;;;;;;3.55;1.20;;;8.30;99.90;;;;;;5094148;28;19927;-84
2023/05/03 01:13:56;;;;;;;3.85;1.45;;;8.20;99.90;;;;;;5094216;28;20274;-83
2023/05/03 01:16:46;;;;;;;6.00;1.23;;;8.10;99.90;;;;;;5094122;28;20039;-83
2023/05/03 01:19:29;;;;;;;6.07;2.03;;;8.10;99.90;;;;;;5094172;28;20089;-85
2023/05/03 01:22:03;;;;;;;2.53;1.20;;;8.10;99.90;;;;;;5094092;28;20060;-85
2023/05/03 01:24:33;;;;;;;9.75;2.22;;;8.00;99.90;;;;;;5092602;28;20158;-83
2023/05/03 01:26:58;;;;;;;3.10;1.33;;;8.00;99.90;;;;;;5094096;28;20051;-84
2023/05/03 01:29:24;;;;;;;7.60;1.70;;;8.00;99.90;;;;;;5093853;28;20040;-84
2023/05/03 01:31:59;;;;;;;5.10;1.33;;;8.10;99.90;;;;;;5092585;28;20040;-84
2023/05/03 01:34:33;;;;;;;4.40;1.30;;;8.10;99.90;;;;;;5092888;28;20044;-84
2023/05/03 01:37:02;;;;;;;5.82;1.75;;;8.10;99.90;;;;;;5094160;28;20070;-84
2023/05/03 01:39:37;;;;;;;6.60;1.42;;;8.10;99.90;;;;;;5093852;28;20054;-82
2023/05/03 01:42:04;;;;;;;3.78;1.52;;;8.10;99.90;;;;;;5093768;28;20046;-84
2023/05/03 01:44:31;;;;;;;6.50;1.45;;;8.00;99.90;;;;;;5093656;28;20044;-84
2023/05/03 01:46:57;;;;;;;2.67;1.17;;;8.00;99.90;;;;;;5092512;28;20052;-82
2023/05/03 01:49:22;;;;;;;4.18;1.50;;;8.00;99.90;;;;;;5093654;28;20062;-82
2023/05/03 01:51:48;;;;;;;3.70;1.80;;;7.90;99.90;;;;;;5092232;28;20375;-83
2023/05/03 01:54:15;;;;;;;3.67;1.23;;;7.80;99.90;;;;;;5092466;28;20093;-83
2023/05/03 01:56:40;;;;;;;3.13;1.38;;;7.80;99.90;;;;;;5092252;28;20056;-85
2023/05/03 01:59:06;;;;;;;4.97;1.50;;;7.90;99.90;;;;;;5093498;28;20066;-84
2023/05/03 02:01:32;;;;;;;7.30;1.50;;;7.90;99.90;;;;;;5093304;28;20048;-84
2023/05/03 02:03:57;;;;;;;5.10;1.50;;;7.90;99.90;;;;;;5093380;28;20049;-84
2023/05/03 02:06:24;;;;;;;2.88;1.23;;;7.90;99.90;;;;;;5093485;28;20040;-84
2023/05/03 02:08:51;;;;;;;3.50;1.70;;;7.90;99.90;;;;;;5092423;28;20044;-84
2023/05/03 02:11:16;;;;;;;7.60;1.90;;;8.00;99.90;;;;;;5093529;28;20284;-83
2023/05/03 02:13:42;;;;;;;3.53;1.52;;;8.00;99.90;;;;;;5092399;28;20130;-84
2023/05/03 02:16:08;;;;;;;5.82;1.38;;;8.00;99.90;;;;;;5093167;28;20415;-83
2023/05/03 02:18:34;;;;;;;3.47;1.50;;;8.00;99.90;;;;;;5093487;28;20048;-83
2023/05/03 02:21:00;;;;;;;5.40;1.45;;;8.00;99.90;;;;;;5093284;28;20131;-83
2023/05/03 02:23:25;;;;;;;3.25;1.15;;;7.90;99.90;;;;;;5093570;28;20135;-83
2023/05/03 02:25:54;;;;;;;3.30;1.40;;;7.90;99.90;;;;;;5093131;28;20170;-83
2023/05/03 02:28:20;;;;;;;3.97;1.30;;;7.90;99.90;;;;;;5093173;28;20056;-83
2023/05/03 02:30:46;;;;;;;4.13;1.50;;;7.90;99.90;;;;;;5093281;28;20040;-83
2023/05/03 02:33:12;;;;;;;2.95;1.20;;;7.90;99.90;;;;;;5093749;28;20127;-84
2023/05/03 02:35:37;;;;;;;3.58;1.50;;;7.80;99.90;;;;;;5093669;28;20119;-84
2023/05/03 02:38:03;;;;;;;2.47;1.50;;;7.90;99.90;;;;;;5093163;28;20130;-82
2023/05/03 02:40:28;;;;;;;6.47;2.08;;;7.90;99.90;;;;;;5091773;28;20105;-83
2023/05/03 02:42:54;;;;;;;8.25;1.65;;;7.90;99.90;;;;;;5093049;28;20043;-83
2023/05/03 02:45:20;;;;;;;4.82;2.00;;;7.80;99.90;;;;;;5095382;28;20522;-83
2023/05/03 02:47:45;;;;;;;2.15;1.25;;;7.90;99.90;;;;;;5096933;28;20396;-83
2023/05/03 02:50:11;;;;;;;4.45;1.50;;;7.90;99.90;;;;;;5096925;28;20052;-83
2023/05/03 02:52:37;;;;;;;3.53;1.55;;;7.90;99.90;;;;;;5096817;28;20032;-84
2023/05/03 02:55:02;;;;;;;4.25;1.30;;;7.90;99.90;;;;;;5095444;28;20498;-82
2023/05/03 02:57:28;;;;;;;2.60;1.60;;;7.90;99.90;;;;;;5095162;28;20051;-83
2023/05/03 02:59:54;;;;;;;4.63;1.60;;;7.90;99.90;;;;;;5096694;28;20038;-83
2023/05/03 03:02:20;;;;;;;4.43;1.67;;;7.80;99.90;;;;;;5095235;28;20052;-84
2023/05/03 03:04:46;;;;;;;4.55;1.63;;;7.80;99.90;;;;;;5095532;28;20064;-84
2023/05/03 03:07:12;;;;;;;4.22;1.50;;;7.80;99.90;;;;;;5096500;28;20079;-84
2023/05/03 03:09:37;;;;;;;5.15;1.38;;;7.80;99.90;;;;;;5095507;28;20040;-84
2023/05/03 03:12:04;;;;;;;4.35;1.80;;;7.90;99.90;;;;;;5096258;28;20044;-82
2023/05/03 03:14:29;;;;;;;4.00;1.90;;;7.80;99.90;;;;;;5096214;28;20507;-82
2023/05/03 03:16:55;;;;;;;5.00;1.65;;;7.80;99.90;;;;;;5096319;28;20526;-84
2023/05/03 03:19:21;;;;;;;5.00;1.40;;;7.80;99.90;;;;;;5094956;28;20059;-82
2023/05/03 03:21:47;;;;;;;3.25;1.30;;;7.80;99.90;;;;;;5095188;28;20130;-84
2023/05/03 03:24:12;;;;;;;3.55;1.15;;;7.90;99.90;;;;;;5094876;28;20060;-84
2023/05/03 03:26:38;;;;;;;4.47;1.60;;;7.90;99.90;;;;;;5094896;28;20415;-84
2023/05/03 03:29:04;;;;;;;4.80;1.67;;;7.80;99.90;;;;;;5096137;28;20047;-84
2023/05/03 03:31:30;;;;;;;4.93;1.63;;;7.80;99.90;;;;;;5094650;28;20048;-85
2023/05/03 03:33:55;;;;;;;2.47;1.30;;;7.80;99.90;;;;;;5096005;28;20036;-85
2023/05/03 03:36:21;;;;;;;3.00;1.35;;;7.70;99.90;;;;;;5094620;28;20050;-85
2023/05/03 03:38:46;;;;;;;5.35;1.40;;;7.70;99.90;;;;;;5095842;28;20055;-85
2023/05/03 03:41:12;;;;;;;3.10;1.38;;;7.70;99.90;;;;;;5095843;28;20488;-85
2023/05/03 03:43:38;;;;;;;3.17;1.60;;;7.70;99.90;;;;;;5095769;28;20119;-84
2023/05/03 03:46:04;;;;;;;4.00;2.00;;;7.70;99.90;;;;;;5095766;28;20097;-84
2023/05/03 03:48:29;;;;;;;3.53;1.58;;;7.70;99.90;;;;;;5095610;28;20131;-84
2023/05/03 03:50:55;;;;;;;4.72;1.85;;;7.70;99.90;;;;;;5095414;28;20048;-84
2023/05/03 03:53:20;;;;;;;2.72;1.40;;;7.70;99.90;;;;;;5095307;28;20040;-84
2023/05/03 03:55:46;;;;;;;5.80;1.60;;;7.70;99.90;;;;;;5094630;28;20075;-83
2023/05/03 03:58:12;;;;;;;2.70;1.40;;;7.60;99.90;;;;;;5094730;28;20425;-85
2023/05/03 04:00:37;;;;;;;5.05;1.63;;;7.70;99.90;;;;;;5094957;28;20040;-83
2023/05/03 04:03:05;;;;;;;5.85;1.50;;;7.70;99.90;;;;;;5092872;28;20052;-83
2023/05/03 04:05:31;;;;;;;4.35;1.30;;;7.70;99.90;;;;;;5092951;28;20040;-83
2023/05/03 04:07:56;;;;;;;4.75;1.92;;;7.70;99.90;;;;;;5095217;28;20131;-83
2023/05/03 04:10:22;;;;;;;3.22;1.80;;;7.70;99.90;;;;;;5093975;28;20369;-83
2023/05/03 04:12:48;;;;;;;4.05;1.70;;;7.70;99.90;;;;;;5095263;28;20073;-82
2023/05/03 04:15:14;;;;;;;4.53;1.55;;;7.70;99.90;;;;;;5093971;28;20044;-83
2023/05/03 04:17:39;;;;;;;3.63;1.58;;;7.80;99.90;;;;;;5094868;28;20080;-85
2023/05/03 04:20:08;;;;;;;3.85;1.67;;;7.70;99.90;;;;;;5095071;28;20043;-85
2023/05/03 04:22:33;;;;;;;6.75;2.10;;;7.80;99.90;;;;;;5093495;28;20048;-85
2023/05/03 04:25:02;;;;;;;3.55;1.58;;;7.80;99.90;;;;;;5094648;28;20058;-85
2023/05/03 04:27:27;;;;;;;3.38;1.85;;;7.80;99.90;;;;;;5094739;28;20056;-85
2023/05/03 04:29:53;;;;;;;3.53;1.63;;;7.80;99.90;;;;;;5093637;28;20090;-85
2023/05/03 04:32:22;;;;;;;5.15;1.73;;;7.80;99.90;;;;;;5093335;28;20122;-85
2023/05/03 04:34:51;;;;;;;4.07;1.52;;;7.90;99.90;;;;;;5094720;28;20086;-85
2023/05/03 04:37:21;;;;;;;4.03;1.40;;;7.90;99.90;;;;;;5094770;28;20043;-84
2023/05/03 04:39:47;;;;;;;2.58;1.40;;;7.90;99.90;;;;;;5093239;28;20036;-85
2023/05/03 04:42:14;;;;;;;4.53;1.70;;;7.90;99.90;;;;;;5094437;28;20130;-85
2023/05/03 04:44:43;;;;;;;7.47;1.75;;;7.90;99.90;;;;;;5093118;28;20059;-84
2023/05/03 04:47:09;;;;;;;2.88;1.63;;;7.90;99.90;;;;;;5094464;28;20048;-83
2023/05/03 04:49:35;;;;;;;6.97;1.65;;;8.00;99.90;;;;;;5093161;28;20562;-85
2023/05/03 04:52:01;;;;;;;3.63;1.20;;;8.00;99.90;;;;;;5093025;28;20047;-85
2023/05/03 04:54:26;;;;;;;4.13;1.60;;;8.00;99.90;;;;;;5093276;28;20044;-85
2023/05/03 04:56:53;;;;;;;5.63;1.30;;;8.00;99.90;;;;;;5094323;28;20063;-85
2023/05/03 04:59:19;;;;;;;6.47;1.65;;;8.00;99.90;;;;;;5094482;28;20111;-84
2023/05/03 05:01:45;;;;;;;4.25;1.50;;;8.00;99.90;;;;;;5094452;28;20566;-84
2023/05/03 05:04:10;;;;;;;3.58;2.38;;;8.00;99.90;;;;;;5094100;28;20483;-84
2023/05/03 05:06:36;;;;;;;5.63;1.83;;;8.00;99.90;;;;;;5093975;28;20040;-84
2023/05/03 05:09:01;;;;;;;6.38;1.73;;;8.00;99.90;;;;;;5093933;28;20083;-86
2023/05/03 05:11:27;;;;;;;5.35;1.52;;;8.10;99.90;;;;;;5094103;28;20055;-85
2023/05/03 05:13:53;;;;;;;3.75;1.45;;;8.10;99.90;;;;;;5094240;28;20043;-84
2023/05/03 05:16:18;;;;;;;3.95;1.70;;;8.10;99.90;;;;;;5094045;28;20040;-85
2023/05/03 05:18:44;;;;;;;5.82;2.03;;;8.10;99.90;;;;;;5092890;28;20059;-88
2023/05/03 05:21:11;;;;;;;6.50;1.52;;;8.10;99.90;;;;;;5092656;28;20052;-86
2023/05/03 05:23:37;;;;;;;4.13;1.50;;;8.10;99.90;;;;;;5093897;28;20075;-87
2023/05/03 05:26:03;;;;;;;3.65;1.67;;;8.10;99.90;;;;;;5094182;28;20082;-87
2023/05/03 05:28:34;;;;;;;7.13;1.85;;;8.20;99.90;;;;;;5094021;28;20080;-85
2023/05/03 05:30:59;;;;;;;4.63;1.40;;;8.20;99.90;;;;;;5093948;28;20035;-85
2023/05/03 05:33:25;;;;;;;7.47;1.73;;;8.30;99.90;;;;;;5093759;28;20040;-85
2023/05/03 05:35:51;;;;;;;4.60;2.15;;;8.30;99.90;;;;;;5092366;28;20042;-86
2023/05/03 05:38:16;;;;;;;5.28;1.75;;;8.20;99.90;;;;;;5093892;28;20086;-86
2023/05/03 05:40:42;;;;;;;11.48;1.73;;;8.30;99.90;;;;;;5093526;28;20043;-86
2023/05/03 05:43:08;;;;;;;4.13;1.88;;;8.30;99.90;;;;;;5093722;28;20036;-86
2023/05/03 05:45:34;;;;;;;5.53;1.73;;;8.30;99.90;;;;;;5093452;28;20368;-86
2023/05/03 05:48:00;;;;;;;3.38;1.40;;;8.40;99.90;;;;;;5093549;28;20048;-86
2023/05/03 05:50:26;;;;;;;3.75;1.45;;;8.40;99.90;;;;;;5093428;28;20415;-86
2023/05/03 05:52:52;;;;;;;4.28;1.50;;;8.50;99.90;;;;;;5093488;28;20040;-86
2023/05/03 05:55:17;;;;;;;2.50;1.30;;;8.50;99.90;;;;;;5093673;28;20040;-86
2023/05/03 05:57:43;;;;;;;4.22;1.58;;;8.60;99.90;;;;;;5092041;28;20048;-85
2023/05/03 06:00:13;;;;;;;4.43;1.50;;;8.60;99.90;;;;;;5092457;28;20051;-86
2023/05/03 06:02:40;;;;;;;3.58;1.20;;;8.70;99.90;;;;;;5092557;28;20055;-85
2023/05/03 06:05:06;;;;;;;4.68;1.50;;;8.60;99.90;;;;;;5093561;28;20040;-86
2023/05/03 06:07:31;;;;;;;4.85;1.50;;;8.60;99.90;;;;;;5093459;28;20396;-86
2023/05/03 06:09:57;;;;;;;3.35;1.55;;;8.60;99.90;;;;;;5093717;28;20040;-86
2023/05/03 06:12:23;;;;;;;4.78;1.90;;;8.60;99.90;;;;;;5093442;28;20048;-86
2023/05/03 06:14:48;;;;;;;4.28;1.58;;;8.60;99.90;;;;;;5093318;28;20097;-87
2023/05/03 06:17:14;;;;;;;8.55;2.22;;;8.60;99.90;;;;;;5085229;28;20051;-87
2023/05/03 06:19:39;;;;;;;2.95;1.30;;;8.60;99.90;;;;;;5078213;28;20511;-86
2023/05/03 06:22:05;;;;;;;5.05;1.48;;;8.70;99.90;;;;;;5077053;28;20045;-85
2023/05/03 06:24:38;;;;;;;3.78;1.30;;;8.60;99.90;;;;;;5075483;28;20052;-87
2023/05/03 06:27:03;;;;;;;3.05;1.33;;;8.60;99.90;;;;;;5076853;28;20055;-86
2023/05/03 06:29:29;;;;;;;6.85;1.58;;;8.80;99.90;;;;;;5075428;28;20045;-87
2023/05/03 06:31:55;;;;;;;4.47;1.65;;;8.80;99.90;;;;;;5076453;28;20045;-84
2023/05/03 06:34:21;;;;;;;3.00;1.67;;;8.70;99.90;;;;;;5075243;28;20051;-86
2023/05/03 06:36:48;;;;;;;5.45;1.90;;;8.80;99.90;;;;;;5076730;28;20530;-82
2023/05/03 06:39:13;;;;;;;4.55;1.77;;;8.80;99.90;;;;;;5076607;28;20076;-86
2023/05/03 06:41:39;;;;;;;4.75;1.40;;;8.90;99.90;;;;;;5075281;28;20090;-86
2023/05/03 06:44:06;;;;;;;7.03;2.28;;;9.00;99.90;;;;;;5075373;28;20072;-86
2023/05/03 06:46:32;;;;;;;4.75;1.67;;;8.90;99.90;;;;;;5075304;28;20391;-85
2023/05/03 06:48:58;;;;;;;4.93;1.58;;;8.90;99.90;;;;;;5076461;28;20141;-85
2023/05/03 06:51:27;;;;;;;5.03;1.50;;;8.90;99.90;;;;;;5075209;28;20488;-87
2023/05/03 06:53:59;;;;;;;6.45;1.30;;;9.00;99.90;;;;;;5075241;28;20518;-87
2023/05/03 06:56:25;;;;;;;3.73;1.53;;;8.90;99.90;;;;;;5076596;28;20045;-86
2023/05/03 06:58:52;;;;;;;5.97;1.60;;;9.00;99.90;;;;;;5076185;28;20044;-89
2023/05/03 07:01:19;;;;;;;5.25;1.40;;;9.00;99.90;;;;;;5074994;28;20044;-89
2023/05/03 07:03:45;;;;;;;7.00;1.77;;;9.00;99.90;;;;;;5075320;28;20048;-85
2023/05/03 07:06:11;;;;;;;4.22;1.40;;;9.20;99.90;;;;;;5076342;28;20120;-90
2023/05/03 07:08:37;;;;;;;5.20;1.35;;;9.30;99.90;;;;;;5076267;28;20115;-86
2023/05/03 07:11:03;;;;;;;3.60;1.45;;;9.30;99.90;;;;;;5075884;28;20573;-87
2023/05/03 07:13:29;;;;;;;5.22;1.60;;;9.40;99.90;;;;;;5075829;28;20040;-85
2023/05/03 07:15:55;;;;;;;2.53;1.50;;;9.40;99.90;;;;;;5075935;28;20045;-86
2023/05/03 07:18:20;;;;;;;5.75;1.40;;;9.50;99.90;;;;;;5075966;28;20049;-87
2023/05/03 07:20:46;;;;;;;4.00;1.33;;;9.60;99.90;;;;;;5075888;28;20044;-86
2023/05/03 07:23:12;;;;;;;4.82;1.50;;;9.60;99.90;;;;;;5075843;28;20075;-85
2023/05/03 07:25:38;;;;;;;5.95;1.27;;;9.70;99.90;;;;;;5075406;28;20051;-85
2023/05/03 07:28:04;;;;;;;6.75;1.80;;;9.80;99.90;;;;;;5075562;28;20504;-85
2023/05/03 07:30:29;;;;;;;4.32;1.50;;;9.80;99.90;;;;;;5073650;28;20082;-86
2023/05/03 07:32:55;;;;;;;3.72;1.42;;;9.80;99.90;;;;;;5075135;28;20369;-86
2023/05/03 07:35:22;;;;;;;4.25;1.52;;;9.80;99.90;;;;;;5075358;28;20049;-85
2023/05/03 07:37:48;;;;;;;2.95;1.38;;;9.90;99.90;;;;;;5074205;28;20439;-85
2023/05/03 07:40:13;;;;;;;8.00;1.73;;;10.00;99.90;;;;;;5075511;28;20036;-86
2023/05/03 07:42:39;;;;;;;2.55;1.55;;;10.00;99.90;;;;;;5075280;28;20048;-85
2023/05/03 07:45:05;;;;;;;4.53;1.58;;;10.00;99.90;;;;;;5075180;28;20083;-85
2023/05/03 07:47:34;;;;;;;4.32;1.40;;;10.10;99.90;;;;;;5075530;28;20044;-86
2023/05/03 07:50:00;;;;;;;3.63;1.67;;;10.10;99.90;;;;;;5075544;28;20036;-85
2023/05/03 07:52:26;;;;;;;4.07;1.80;;;10.20;99.90;;;;;;5075232;28;20049;-83
2023/05/03 07:54:52;;;;;;;4.40;1.60;;;10.20;99.90;;;;;;5073690;28;20385;-85
2023/05/03 07:57:18;;;;;;;5.93;1.45;;;10.20;99.90;;;;;;5073889;28;20481;-86
2023/05/03 07:59:43;;;;;;;4.47;1.33;;;10.20;99.90;;;;;;5074877;28;20048;-86
2023/05/03 08:02:09;;;;;;;3.70;1.55;;;10.40;99.90;;;;;;5091684;28;20204;-86
2023/05/03 08:04:35;;;;;;;5.72;1.85;;;10.40;99.90;;;;;;5095278;28;20044;-84
2023/05/03 08:07:03;;;;;;;4.57;1.40;;;10.50;99.90;;;;;;5095327;28;20051;-86
2023/05/03 08:09:29;;;;;;;5.22;2.00;;;10.60;99.90;;;;;;5094993;28;20048;-84
2023/05/03 08:11:56;;;;;;;3.17;1.27;;;10.60;99.90;;;;;;5094878;28;20032;-84
2023/05/03 08:14:22;;;;;;;3.30;1.30;;;10.70;99.90;;;;;;5095237;28;20123;-85
2023/05/03 08:16:48;;;;;;;6.43;1.60;;;10.60;99.90;;;;;;5094879;28;20068;-86
2023/05/03 08:19:14;;;;;;;3.80;1.40;;;10.70;99.90;;;;;;5094626;28;20040;-85
2023/05/03 08:21:39;;;;;;;3.65;1.20;;;10.80;99.90;;;;;;5094640;28;20043;-85
2023/05/03 08:24:12;;;;;;;4.30;1.42;;;10.90;99.90;;;;;;5093613;28;20086;-85
2023/05/03 08:26:39;;;;;;;5.43;1.80;;;10.90;99.90;;;;;;5094758;28;20136;-85
2023/05/03 08:29:05;;;;;;;3.25;1.40;;;10.90;99.90;;;;;;5095067;28;20047;-86
2023/05/03 08:31:31;;;;;;;6.28;1.30;;;10.90;99.90;;;;;;5094785;28;20070;-86
2023/05/03 08:33:56;;;;;;;3.55;2.15;;;10.90;99.90;;;;;;5094969;28;20048;-85
2023/05/03 08:36:22;;;;;;;6.38;1.38;;;11.10;99.90;;;;;;5094706;28;20057;-85
2023/05/03 08:38:49;;;;;;;5.88;1.60;;;11.10;99.90;;;;;;5094601;28;20048;-85
2023/05/03 08:41:27;;;;;;;4.55;1.38;;;11.10;99.90;;;;;;5093135;28;20048;-85
2023/05/03 08:43:55;;;;;;;16.02;1.88;;;11.20;99.90;;;;;;5092994;28;20056;-86
2023/05/03 08:46:21;;;;;;;3.90;1.23;;;11.20;99.90;;;;;;5092948;28;20048;-84
2023/05/03 08:48:54;;;;;;;5.47;1.65;;;11.20;99.90;;;;;;5094429;28;20059;-85
2023/05/03 08:51:20;;;;;;;;;;;11.10;99.90;;;;;;5093746;28;20169;-84
2023/05/03 08:53:46;;;;;;;5.95;1.40;;;11.20;99.90;;;;;;5094086;28;19916;-85
2023/05/03 08:56:23;;;;;;;5.22;1.13;;;11.30;99.90;;;;;;5094055;28;20044;-82
2023/05/03 08:58:49;;;;;;;5.53;1.40;;;11.30;99.90;;;;;;5094198;28;20396;-85
2023/05/03 09:01:15;;;;;;;5.63;1.33;;;11.40;99.90;;;;;;5094106;28;20472;-86
2023/05/03 09:03:48;;;;;;;3.05;1.10;;;11.40;99.90;;;;;;5092987;28;20136;-89
2023/05/03 09:06:25;;;;;;;2.40;1.33;;;11.50;99.90;;;;;;5092597;28;20407;-85
2023/05/03 09:08:51;;;;;;;2.63;1.30;;;11.40;99.90;;;;;;5094155;28;20102;-82
2023/05/03 09:11:26;;;;;;;2.60;1.05;;;11.40;99.90;;;;;;5094064;28;20048;-85
2023/05/03 09:13:53;;;;;;;3.83;1.17;;;11.50;99.90;;;;;;5093986;28;20048;-85
2023/05/03 09:16:23;;;;;;;4.20;1.33;;;11.40;99.90;;;;;;5094133;28;20059;-83
2023/05/03 09:19:08;;;;;;;5.22;1.52;;;11.40;99.90;;;;;;5094286;28;20054;-83
2023/05/03 09:21:35;;;;;;;5.30;1.35;;;11.30;99.90;;;;;;5094128;28;20036;-83
2023/05/03 09:24:02;;;;;;;3.25;1.20;;;11.40;99.90;;;;;;5093503;28;20059;-82
2023/05/03 09:26:33;;;;;;;3.70;1.35;;;11.50;99.90;;;;;;5092357;28;20055;-87
2023/05/03 09:29:00;;;;;;;2.63;1.17;;;11.50;99.90;;;;;;5093780;28;20119;-86
2023/05/03 09:31:30;;;;;;;3.25;1.35;;;11.70;99.90;;;;;;5092524;28;20119;-86
2023/05/03 09:33:57;;;;;;;2.75;1.23;;;11.60;99.90;;;;;;5092260;28;20043;-85
2023/05/03 09:36:23;;;;;;;4.00;1.00;;;11.60;99.90;;;;;;5093636;28;20040;-85
2023/05/03 09:38:51;;;;;;;3.47;1.30;;;11.90;99.90;;;;;;5092105;28;20062;-86
2023/05/03 09:41:27;;;;;;;4.25;1.35;;;12.00;99.90;;;;;;5087748;28;20383;-86
2023/05/03 09:43:54;;;;;;;3.58;1.30;;;11.70;99.90;;;;;;5084475;28;20055;-87
2023/05/03 09:46:21;;;;;;;2.05;1.20;;;11.80;99.90;;;;;;5080745;28;20052;-88
2023/05/03 09:48:48;;;;;;;2.60;1.02;;;11.90;99.90;;;;;;5074422;28;20044;-87
2023/05/03 09:51:13;;;;;;;2.42;1.20;;;12.10;99.90;;;;;;5090069;28;20052;-87
2023/05/03 09:53:40;;;;;;;3.40;1.00;;;12.30;99.90;;;;;;5092941;28;20127;-84
2023/05/03 09:56:11;;;;;;;5.20;1.20;;;12.40;99.90;;;;;;5093206;28;20044;-83
2023/05/03 09:58:38;;;;;;;4.97;1.30;;;12.40;99.90;;;;;;5093398;28;20054;-84
2023/05/03 10:01:04;;;;;;;3.50;1.10;;;12.40;99.90;;;;;;5092382;28;20391;-84
2023/05/03 10:03:40;;;;;;;3.92;1.17;;;12.50;99.90;;;;;;5092241;28;20052;-85
2023/05/03 10:06:15;;;;;;;4.18;0.90;;;12.60;99.90;;;;;;5084226;28;20043;-85
2023/05/03 10:08:48;;;;;;;3.72;1.20;;;12.70;99.90;;;;;;5080358;28;20037;-85
2023/05/03 10:11:17;;;;;;;2.17;1.10;;;12.70;99.90;;;;;;5082150;28;20052;-86
2023/05/03 10:13:42;;;;;;;6.05;1.42;;;12.40;99.90;;;;;;5125918;28;20044;-85
2023/05/03 10:16:14;;;;;;;5.70;1.00;;;12.40;99.90;;;;;;5093130;28;20048;-85
2023/05/03 10:18:46;;;;;;;3.42;1.10;;;12.40;99.90;;;;;;5091822;28;20079;-85
2023/05/03 10:21:20;;;;;;;4.30;1.25;;;12.50;99.90;;;;;;5093072;28;20407;-85
2023/05/03 10:24:14;;;;;;;3.25;1.30;;;12.60;99.90;;;;;;5093059;28;20071;-85
2023/05/03 10:26:41;;;;;;;5.95;1.27;;;12.80;99.90;;;;;;5093263;28;20087;-83
2023/05/03 10:29:33;;;;;;;3.50;1.23;;;12.70;99.90;;;;;;5093306;28;20087;-83
2023/05/03 10:31:59;;;;;;;3.97;1.30;;;12.80;99.90;;;;;;5091593;28;20090;-84
2023/05/03 10:34:31;;;;;;;5.18;1.30;;;12.90;99.90;;;;;;5091692;28;20092;-83
2023/05/03 10:37:07;;;;;;;3.92;1.38;;;12.80;99.90;;;;;;5093110;28;20048;-85
2023/05/03 10:39:32;;;;;;;5.60;1.23;;;13.00;99.90;;;;;;5091654;28;20048;-83
2023/05/03 10:42:03;;;;;;;3.05;1.00;;;13.20;99.90;;;;;;5091381;28;20047;-83
2023/05/03 10:44:37;;;;;;;5.10;1.50;;;13.30;99.90;;;;;;5091858;28;20502;-82
2023/05/03 10:47:13;;;;;;;3.63;1.08;;;13.00;99.90;;;;;;5091567;28;20093;-82
2023/05/03 10:49:39;;;;;;;4.72;1.40;;;12.90;99.90;;;;;;5091894;28;20047;-82
2023/05/03 10:52:37;;;;;;;3.42;1.00;;;13.30;99.90;;;;;;5092786;28;20043;-85
2023/05/03 10:55:12;;;;;;;3.75;1.30;;;13.50;99.90;;;;;;5092647;28;20089;-84
2023/05/03 10:57:42;;;;;;;4.22;1.30;;;13.60;99.90;;;;;;5092727;28;20084;-85
2023/05/03 11:00:31;;;;;;;2.63;1.00;;;13.60;99.90;;;;;;5091699;28;20107;-85
2023/05/03 11:03:08;;;;;;;4.60;1.08;;;13.90;99.90;;;;;;5091348;28;20070;-80
2023/05/03 11:05:35;;;;;;;4.22;1.10;;;14.10;99.90;;;;;;5092624;28;20051;-81
2023/05/03 11:08:09;;;;;;;2.33;1.00;;;14.20;99.90;;;;;;5096215;28;20411;-83
2023/05/03 11:10:35;;;;;;;3.30;1.20;;;14.50;99.90;;;;;;5095191;28;20043;-83
2023/05/03 11:13:00;;;;;;;5.50;1.13;;;14.40;99.90;;;;;;5096157;28;20507;-84
2023/05/03 11:15:26;;;;;;;4.50;1.35;;;14.40;99.90;;;;;;5096102;28;20391;-82
2023/05/03 11:17:52;;;;;;;5.03;1.40;;;14.70;99.90;;;;;;5096146;28;20044;-81
2023/05/03 11:20:18;;;;;;;3.72;0.98;;;14.70;99.90;;;;;;5096078;28;20044;-83
2023/05/03 11:22:44;;;;;;;4.03;0.93;;;14.50;99.90;;;;;;5096173;28;20055;-81
2023/05/03 11:25:14;;;;;;;4.50;1.23;;;14.40;99.90;;;;;;5094430;28;20091;-84
2023/05/03 11:27:43;;;;;;;4.57;1.48;;;14.20;99.90;;;;;;5096177;28;20063;-84
2023/05/03 11:30:10;;;;;;;2.88;1.20;;;14.40;99.90;;;;;;5096187;28;20067;-84
2023/05/03 11:32:35;;;;;;;3.17;1.10;;;14.40;99.90;;;;;;5095687;28;20123;-85
2023/05/03 11:35:04;;;;;;;2.97;1.00;;;14.50;99.90;;;;;;5095820;28;20134;-84
2023/05/03 11:37:33;;;;;;;2.92;1.10;;;14.50;99.90;;;;;;5095212;28;20052;-84
2023/05/03 11:39:59;;;;;;;2.78;1.10;;;14.50;99.90;;;;;;5094784;28;20082;-84
2023/05/03 11:42:26;;;;;;;3.83;1.20;;;14.80;99.90;;;;;;5094151;28;20082;-82
2023/05/03 11:44:55;;;;;;;4.35;1.17;;;14.50;99.90;;;;;;5095896;28;20047;-82
2023/05/03 11:47:24;;;;;;;4.70;1.25;;;14.30;99.90;;;;;;5128276;27;20119;-82
2023/05/03 11:49:55;;;;;;;3.25;1.10;;;14.30;99.90;;;;;;5095702;28;20089;-81
2023/05/03 11:52:26;;;;;;;3.30;1.48;;;14.70;99.90;;;;;;5095688;28;20061;-81
2023/05/03 11:54:52;;;;;;;3.10;1.23;;;14.90;99.90;;;;;;5095515;28;20048;-80
2023/05/03 11:57:19;;;;;;;2.42;1.05;;;15.20;99.90;;;;;;5095481;28;20036;-80
2023/05/03 11:59:45;;;;;;;2.00;1.20;;;14.90;99.90;;;;;;5095205;28;20052;-81
2023/05/03 12:02:13;;;;;;;2.20;0.90;;;15.30;99.90;;;;;;5093919;28;20055;-80
2023/05/03 12:04:40;;;;;;;4.30;1.20;;;14.90;99.90;;;;;;5095183;28;20036;-81
2023/05/03 12:07:07;;;;;;;4.55;1.20;;;15.20;99.90;;;;;;5095232;28;20549;-84
2023/05/03 12:09:34;;;;;;;4.63;1.30;;;15.40;99.90;;;;;;5095001;28;20040;-83
2023/05/03 12:12:01;;;;;;;7.88;1.77;;;15.50;99.90;;;;;;5094999;28;20123;-82
2023/05/03 12:14:27;;;;;;;2.47;1.08;;;15.60;99.90;;;;;;5094949;28;20036;-82
2023/05/03 12:16:53;;;;;;;3.53;1.52;;;15.50;99.90;;;;;;5093171;28;20043;-81
2023/05/03 12:19:27;;;;;;;6.93;1.10;;;14.90;99.90;;;;;;5095052;28;20048;-81
2023/05/03 12:21:53;;;;;;;6.28;1.20;;;14.80;99.90;;;;;;5094446;28;20044;-78
2023/05/03 12:24:18;;;;;;;2.50;0.98;;;14.20;99.90;;;;;;5079634;28;20105;-80
2023/05/03 12:26:45;;;;;;;6.22;1.27;;;14.00;99.90;;;;;;5095019;28;20411;-81
2023/05/03 12:29:11;;;;;;;3.53;1.15;;;14.60;99.90;;;;;;5094819;28;20046;-81
2023/05/03 12:31:37;;;;;;;4.72;1.17;;;14.60;99.90;;;;;;5094656;28;20059;-82
2023/05/03 12:34:03;;;;;;;4.75;1.75;;;14.80;99.90;;;;;;5093303;28;20094;-82
2023/05/03 12:36:31;;;;;;;2.72;1.05;;;14.80;99.90;;;;;;5093454;28;20056;-83
2023/05/03 12:38:57;;;;;;;4.05;1.10;;;14.30;99.90;;;;;;5094354;28;20411;-83
2023/05/03 12:41:26;;;;;;;3.67;1.02;;;14.00;99.90;;;;;;5094558;28;20544;-82
2023/05/03 12:43:52;;;;;;;3.22;1.13;;;13.90;99.90;;;;;;5094456;28;20096;-81
2023/05/03 12:46:18;;;;;;;4.60;2.00;;;13.40;99.90;;;;;;5093018;28;20051;-82
2023/05/03 12:48:44;;;;;;;4.13;1.00;;;13.50;99.90;;;;;;5094404;28;20051;-82
2023/05/03 12:51:10;;;;;;;5.60;1.30;;;13.50;99.90;;;;;;5093201;28;20036;-82
2023/05/03 12:53:35;;;;;;;2.35;1.00;;;13.30;99.90;;;;;;5094144;28;20513;-82